createdAt,value
2023-05-14T00:03:22.424Z,98647.88
2023-05-14T00:08:25.410Z,98635.50
2023-05-14T00:13:28.180Z,98642.13
2023-05-14T00:18:32.649Z,98632.44
2023-05-14T00:23:35.498Z,98635.44
2023-05-14T00:28:38.453Z,98628.66
2023-05-14T00:33:42.594Z,98632.63
2023-05-14T00:38:45.355Z,98623.41
2023-05-14T00:43:48.209Z,98614.44
2023-05-14T00:48:52.455Z,98616.59
2023-05-14T00:53:55.882Z,98616.28
2023-05-14T00:58:59.018Z,98609.63
2023-05-14T01:04:03.492Z,98605.16
2023-05-14T01:09:14.790Z,98604.78
2023-05-14T01:14:35.461Z,98603.31
2023-05-14T01:19:42.668Z,98602.78
2023-05-14T01:24:46.840Z,98604.31
2023-05-14T01:29:54.426Z,98604.31
2023-05-14T01:35:01.250Z,98601.03
2023-05-14T01:40:08.442Z,98589.03
2023-05-14T01:45:11.894Z,98586.50
2023-05-14T01:50:14.655Z,98591.63
2023-05-14T01:55:19.308Z,98590.81
2023-05-14T02:00:24.697Z,98599.69
2023-05-14T02:05:28.183Z,98594.97
2023-05-14T02:10:32.403Z,98592.03
2023-05-14T02:15:35.208Z,98599.66
2023-05-14T02:20:38.045Z,98590.22
2023-05-14T02:25:43.227Z,98586.53
2023-05-14T02:30:45.920Z,98582.28
2023-05-14T02:35:48.632Z,98584.66
2023-05-14T02:40:52.719Z,98572.56
2023-05-14T02:45:55.472Z,98573.97
2023-05-14T02:50:58.504Z,98567.06
2023-05-14T02:56:02.678Z,98567.94
2023-05-14T03:01:05.855Z,98566.97
2023-05-14T03:06:09.100Z,98567.81
2023-05-14T03:11:13.244Z,98567.59
2023-05-14T03:16:16.037Z,98560.81
2023-05-14T03:21:18.811Z,98561.88
2023-05-14T03:26:22.857Z,98565.59
2023-05-14T03:31:28.612Z,98561.47
2023-05-14T03:36:34.055Z,98556.16
2023-05-14T03:41:39.315Z,98562.31
2023-05-14T03:46:42.766Z,98567.19
2023-05-14T03:51:45.792Z,98568.88
2023-05-14T03:56:50.012Z,98567.84
2023-05-14T04:01:52.980Z,98567.41
2023-05-14T04:06:55.703Z,98570.38
2023-05-14T04:24:33.982Z,98571.53
2023-05-14T04:29:38.090Z,98565.72
2023-05-14T04:34:41.142Z,98569.94
2023-05-14T04:39:43.874Z,98562.19
2023-05-14T04:44:47.920Z,98573.31
2023-05-14T04:49:51.246Z,98579.84
2023-05-14T04:54:54.104Z,98574.84
2023-05-14T04:59:58.166Z,98580.25
2023-05-14T05:05:00.860Z,98572.81
2023-05-14T05:10:03.921Z,98575.53
2023-05-14T05:15:09.556Z,98566.16
2023-05-14T05:20:14.117Z,98581.34
2023-05-14T05:25:16.907Z,98580.34
2023-05-14T05:30:21.222Z,98585.78
2023-05-14T05:35:24.103Z,98590.38
2023-05-14T05:40:26.870Z,98585.88
2023-05-14T05:45:31.127Z,98581.81
2023-05-14T05:50:33.987Z,98578.72
2023-05-14T05:55:38.998Z,98579.72
2023-05-14T06:00:43.639Z,98574.66
2023-05-14T06:05:46.802Z,98579.97
2023-05-14T06:10:49.879Z,98583.75
2023-05-14T06:15:56.376Z,98579.25
2023-05-14T06:21:00.177Z,98588.34
2023-05-14T06:26:03.204Z,98585.19
2023-05-14T06:31:10.187Z,98583.28
2023-05-14T06:36:13.036Z,98578.91
2023-05-14T06:41:15.736Z,98592.53
2023-05-14T06:46:19.884Z,98587.31
2023-05-14T06:51:23.636Z,98580.47
2023-05-14T06:56:26.395Z,98581.06
2023-05-14T07:01:34.773Z,98574.25
2023-05-14T07:06:38.116Z,98577.06
2023-05-14T07:11:40.973Z,98581.69
2023-05-14T07:16:46.860Z,98577.16
2023-05-14T07:21:50.963Z,98581.50
2023-05-14T07:26:54.381Z,98574.97
2023-05-14T07:32:00.562Z,98563.59
2023-05-14T07:37:03.675Z,98564.88
2023-05-14T07:42:09.781Z,98558.97
2023-05-14T07:47:15.224Z,98560.78
2023-05-14T07:52:20.156Z,98558.72
2023-05-14T07:57:23.132Z,98557.50
2023-05-14T08:02:29.781Z,98553.97
2023-05-14T08:07:33.723Z,98553.13
2023-05-14T08:12:36.480Z,98555.22
2023-05-14T08:17:40.786Z,98552.91
2023-05-14T08:22:45.135Z,98550.88
2023-05-14T08:27:48.785Z,98552.88
2023-05-14T08:32:53.764Z,98549.56
2023-05-14T08:37:58.435Z,98540.63
2023-05-14T08:43:01.973Z,98544.97
2023-05-14T08:48:11.250Z,98539.34
2023-05-14T08:53:14.603Z,98527.31
2023-05-14T08:58:19.289Z,98525.91
2023-05-14T09:03:23.786Z,98522.25
2023-05-14T09:08:28.787Z,98522.75
2023-05-14T09:13:32.820Z,98514.59
2023-05-14T09:18:38.173Z,98512.19
2023-05-14T09:23:43.321Z,98511.72
2023-05-14T09:28:46.200Z,98506.88
2023-05-14T09:33:53.781Z,98502.56
2023-05-14T09:38:58.397Z,98491.06
2023-05-14T09:44:04.663Z,98489.59
2023-05-14T09:49:10.317Z,98492.59
2023-05-14T09:54:13.308Z,98484.22
2023-05-14T09:59:16.050Z,98487.38
2023-05-14T10:04:23.478Z,98472.84
2023-05-14T10:09:29.267Z,98478.41
2023-05-14T10:14:37.193Z,98468.84
2023-05-14T10:19:41.840Z,98469.38
2023-05-14T10:24:45.923Z,98461.00
2023-05-14T10:29:54.841Z,98453.16
2023-05-14T10:35:02.637Z,98454.09
2023-05-14T10:40:11.525Z,98454.44
2023-05-14T10:45:16.572Z,98446.88
2023-05-14T10:50:23.634Z,98448.94
2023-05-14T10:55:26.918Z,98438.69
2023-05-14T11:00:31.008Z,98438.56
2023-05-14T11:05:38.707Z,98436.34
2023-05-14T11:10:43.689Z,98420.69
2023-05-14T11:15:49.413Z,98414.63
2023-05-14T11:20:54.853Z,98403.88
2023-05-14T11:25:58.165Z,98401.38
2023-05-14T11:31:02.452Z,98392.34
2023-05-14T11:36:07.679Z,98392.31
2023-05-14T11:41:17.840Z,98395.72
2023-05-14T11:46:22.076Z,98385.16
2023-05-14T11:51:28.572Z,98386.63
2023-05-14T11:56:33.127Z,98388.31
2023-05-14T12:01:37.928Z,98372.34
2023-05-14T12:06:42.993Z,98378.69
2023-05-14T12:11:46.312Z,98371.22
2023-05-14T12:16:51.967Z,98363.94
2023-05-14T12:21:56.134Z,98360.66
2023-05-14T12:27:02.811Z,98353.59
2023-05-14T12:32:10.033Z,98346.78
2023-05-14T12:37:14.199Z,98342.84
2023-05-14T12:42:17.682Z,98349.88
2023-05-14T12:47:22.148Z,98336.16
2023-05-14T12:52:37.762Z,98335.13
2023-05-14T12:57:42.844Z,98324.47
2023-05-14T13:02:47.151Z,98312.63
2023-05-14T13:07:53.382Z,98308.81
2023-05-14T13:12:56.904Z,98300.66
2023-05-14T13:18:00.190Z,98290.84
2023-05-14T13:23:04.268Z,98285.38
2023-05-14T13:28:08.085Z,98287.53
2023-05-14T13:33:10.871Z,98286.75
2023-05-14T13:38:15.112Z,98269.69
2023-05-14T13:43:18.676Z,98278.34
2023-05-14T13:48:23.463Z,98264.59
2023-05-14T13:53:28.090Z,98276.41
2023-05-14T13:58:31.307Z,98259.41
2023-05-14T14:03:34.417Z,98256.66
2023-05-14T14:08:38.863Z,98255.31
2023-05-14T14:13:41.533Z,98246.31
2023-05-14T14:18:47.132Z,98244.88
2023-05-14T14:23:51.227Z,98232.47
2023-05-14T14:28:54.081Z,98224.56
2023-05-14T14:33:56.858Z,98221.44
2023-05-14T14:39:01.089Z,98213.50
2023-05-14T14:44:03.905Z,98217.97
2023-05-14T14:49:07.115Z,98204.69
2023-05-14T14:54:11.269Z,98214.47
2023-05-14T14:59:14.795Z,98217.38
2023-05-14T15:04:17.984Z,98229.28
2023-05-14T15:09:22.094Z,98237.22
2023-05-14T15:14:25.153Z,98246.56
2023-05-14T15:19:27.862Z,98244.63
2023-05-14T15:24:32.207Z,98241.53
2023-05-14T15:29:34.945Z,98248.66
2023-05-14T15:34:38.190Z,98239.69
2023-05-14T15:39:42.300Z,98244.16
2023-05-14T15:44:45.076Z,98237.09
2023-05-14T15:49:47.804Z,98235.28
2023-05-14T15:54:52.212Z,98232.72
2023-05-14T15:59:56.715Z,98220.06
2023-05-14T16:04:59.800Z,98219.63
2023-05-14T16:10:04.967Z,98223.59
2023-05-14T16:15:09.360Z,98221.72
2023-05-14T16:20:13.367Z,98231.09
2023-05-14T16:25:18.598Z,98223.69
2023-05-14T16:30:21.423Z,98218.19
2023-05-14T16:35:24.393Z,98228.78
2023-05-14T16:40:28.536Z,98227.50
2023-05-14T16:45:33.279Z,98227.81
2023-05-14T16:50:36.060Z,98225.13
2023-05-14T16:55:40.290Z,98237.03
2023-05-14T17:00:44.888Z,98232.94
2023-05-14T17:05:48.307Z,98240.75
2023-05-14T17:10:52.472Z,98248.69
2023-05-14T17:15:55.261Z,98245.91
2023-05-14T17:20:59.115Z,98255.69
2023-05-14T17:26:03.549Z,98252.34
2023-05-14T17:31:07.314Z,98249.53
2023-05-14T17:36:12.294Z,98247.56
2023-05-14T17:41:17.324Z,98251.50
2023-05-14T17:46:21.278Z,98243.53
2023-05-14T17:51:25.265Z,98248.97
2023-05-14T17:56:30.622Z,98247.84
2023-05-14T18:01:33.580Z,98259.09
2023-05-14T18:06:36.704Z,98259.31
2023-05-14T18:11:42.547Z,98256.13
2023-05-14T18:16:45.467Z,98267.56
2023-05-14T18:21:49.422Z,98270.25
2023-05-14T18:26:53.597Z,98270.28
2023-05-14T18:31:59.179Z,98283.44
2023-05-14T18:37:02.417Z,98285.78
2023-05-14T18:42:10.396Z,98279.34
2023-05-14T18:47:14.238Z,98280.50
2023-05-14T18:52:19.085Z,98279.09
2023-05-14T18:57:23.451Z,98272.81
2023-05-14T19:02:27.450Z,98280.31
2023-05-14T19:07:32.207Z,98280.63
2023-05-14T19:12:38.363Z,98287.25
2023-05-14T19:17:42.985Z,98282.34
2023-05-14T19:22:46.556Z,98265.22
2023-05-14T19:27:54.108Z,98283.16
2023-05-14T19:32:57.838Z,98286.16
2023-05-14T19:38:02.164Z,98287.13
2023-05-14T19:43:07.817Z,98290.25
2023-05-14T19:48:12.495Z,98294.25
2023-05-14T19:53:16.296Z,98294.19
2023-05-14T19:58:20.517Z,98289.97
2023-05-14T20:03:25.469Z,98287.84
2023-05-14T20:08:29.084Z,98288.59
2023-05-14T20:13:33.424Z,98275.25
2023-05-14T20:18:36.355Z,98261.84
2023-05-14T20:23:39.273Z,98270.75
2023-05-14T20:28:43.422Z,98269.81
2023-05-14T20:33:46.372Z,98258.25
2023-05-14T20:38:49.180Z,98258.88
2023-05-14T20:43:53.474Z,98258.03
2023-05-14T20:48:57.599Z,98256.81
2023-05-14T20:54:00.850Z,98245.88
2023-05-14T20:59:04.923Z,98244.13
2023-05-14T21:04:08.103Z,98245.41
2023-05-14T21:09:11.850Z,98240.81
2023-05-14T21:14:16.003Z,98245.88
2023-05-14T21:19:18.880Z,98248.03
2023-05-14T21:24:21.821Z,98253.41
2023-05-14T21:29:25.958Z,98246.94
2023-05-14T21:34:31.210Z,98252.72
2023-05-14T21:39:34.822Z,98241.47
2023-05-14T21:44:39.022Z,98249.97
2023-05-14T21:49:41.863Z,98246.44
2023-05-14T21:54:44.653Z,98245.50
2023-05-14T21:59:48.754Z,98239.75
2023-05-14T22:04:51.514Z,98238.81
2023-05-14T22:09:54.260Z,98234.94
2023-05-14T22:14:58.311Z,98238.22
2023-05-14T22:20:01.117Z,98246.13
2023-05-14T22:25:04.165Z,98240.84
2023-05-14T22:30:10.617Z,98240.63
2023-05-14T22:35:13.394Z,98229.56
2023-05-14T22:40:16.174Z,98231.75
2023-05-14T22:45:20.367Z,98218.41
2023-05-14T22:50:23.421Z,98211.09
2023-05-14T22:55:26.368Z,98213.94
2023-05-14T23:00:30.659Z,98210.34
2023-05-14T23:05:33.477Z,98203.59
2023-05-14T23:10:36.363Z,98202.06
2023-05-14T23:15:40.623Z,98201.53
2023-05-14T23:20:43.860Z,98199.41
2023-05-14T23:25:46.639Z,98201.09
2023-05-14T23:30:50.777Z,98189.88
2023-05-14T23:35:53.890Z,98186.63
2023-05-14T23:40:56.930Z,98184.38
2023-05-14T23:46:01.619Z,98181.28
2023-05-14T23:51:04.663Z,98181.72
2023-05-14T23:56:07.884Z,98170.00
